createdAt,value
2019-05-16T00:01:00.671Z,6.10
2019-05-16T00:03:28.334Z,7.83
2019-05-16T00:05:58.215Z,5.97
2019-05-16T00:08:28.388Z,6.17
2019-05-16T00:10:57.943Z,5.53
2019-05-16T00:13:27.847Z,6.63
2019-05-16T00:15:55.401Z,8.83
2019-05-16T00:18:23.491Z,5.80
2019-05-16T00:20:51.849Z,5.20
2019-05-16T00:23:20.520Z,5.23
2019-05-16T00:25:48.183Z,5.70
2019-05-16T00:28:18.006Z,4.50
2019-05-16T00:30:48.496Z,4.83
2019-05-16T00:33:15.194Z,4.83
2019-05-16T00:35:42.954Z,7.27
2019-05-16T00:38:10.596Z,4.43
2019-05-16T00:40:38.564Z,3.77
2019-05-16T00:43:08.052Z,4.70
2019-05-16T00:45:38.555Z,4.67
2019-05-16T00:48:08.779Z,6.50
2019-05-16T00:50:35.977Z,10.17
2019-05-16T00:53:03.597Z,7.00
2019-05-16T00:55:32.185Z,4.17
2019-05-16T00:58:00.400Z,4.57
2019-05-16T01:00:45.330Z,3.90
2019-05-16T01:03:13.092Z,6.17
2019-05-16T01:05:40.986Z,3.73
2019-05-16T01:08:08.652Z,4.90
2019-05-16T01:10:39.055Z,4.10
2019-05-16T01:13:08.008Z,4.40
2019-05-16T01:15:37.874Z,5.07
2019-05-16T01:18:05.235Z,4.40
2019-05-16T01:20:33.041Z,4.57
2019-05-16T01:23:00.863Z,7.57
2019-05-16T01:25:28.712Z,5.53
2019-05-16T01:27:58.264Z,5.63
2019-05-16T01:30:28.544Z,4.10
2019-05-16T01:32:58.130Z,4.10
2019-05-16T01:35:27.750Z,4.33
2019-05-16T01:37:55.213Z,5.87
2019-05-16T01:40:22.909Z,4.03
2019-05-16T01:42:50.490Z,4.20
2019-05-16T01:45:18.930Z,5.57
2019-05-16T01:47:48.191Z,4.67
2019-05-16T01:50:18.046Z,5.70
2019-05-16T01:52:45.511Z,6.80
2019-05-16T01:55:14.101Z,10.80
2019-05-16T01:57:42.150Z,7.00
2019-05-16T02:00:10.068Z,4.80
2019-05-16T02:02:38.671Z,6.37
2019-05-16T02:05:08.265Z,4.77
2019-05-16T02:07:38.191Z,6.80
2019-05-16T02:10:05.995Z,4.53
2019-05-16T02:12:34.099Z,4.53
2019-05-16T02:15:01.796Z,4.73
2019-05-16T02:17:29.845Z,6.30
2019-05-16T02:19:57.870Z,9.03
2019-05-16T02:22:25.407Z,5.57
2019-05-16T02:24:53.432Z,9.43
2019-05-16T02:27:21.348Z,5.57
2019-05-16T02:29:50.649Z,6.23
2019-05-16T02:32:22.003Z,5.97
2019-05-16T02:34:48.206Z,6.83
2019-05-16T02:37:24.172Z,5.67
2019-05-16T02:39:45.318Z,5.23
2019-05-16T02:42:12.915Z,7.93
2019-05-16T02:44:41.269Z,6.13
2019-05-16T02:47:10.960Z,11.37
2019-05-16T02:49:41.923Z,7.43
2019-05-16T02:52:10.880Z,7.70
2019-05-16T02:54:41.023Z,7.67
2019-05-16T02:57:10.872Z,5.00
2019-05-16T02:59:37.400Z,4.83
2019-05-16T03:02:06.124Z,4.83
2019-05-16T03:04:33.733Z,5.10
2019-05-16T03:07:02.435Z,4.70
2019-05-16T03:09:30.889Z,4.90
2019-05-16T03:12:01.323Z,5.33
2019-05-16T03:14:31.632Z,5.47
2019-05-16T03:17:03.618Z,4.17
2019-05-16T03:19:34.387Z,4.27
2019-05-16T03:22:04.265Z,6.23
2019-05-16T03:24:32.224Z,6.17
2019-05-16T03:27:01.661Z,4.77
2019-05-16T03:29:30.896Z,7.40
2019-05-16T03:32:03.069Z,9.23
2019-05-16T03:34:33.851Z,5.80
2019-05-16T03:37:03.317Z,5.17
2019-05-16T03:39:27.843Z,6.07
2019-05-16T03:41:56.536Z,12.33
2019-05-16T03:44:24.505Z,5.43
2019-05-16T03:46:52.456Z,5.97
2019-05-16T03:49:21.154Z,5.87
2019-05-16T03:51:50.563Z,7.07
2019-05-16T03:54:21.175Z,4.97
2019-05-16T03:56:51.178Z,5.53
2019-05-16T03:59:21.540Z,6.57
2019-05-16T04:01:51.022Z,6.80
2019-05-16T04:04:20.841Z,5.80
2019-05-16T04:06:50.725Z,4.67
2019-05-16T04:09:21.078Z,6.00
2019-05-16T04:11:50.735Z,5.67
2019-05-16T04:14:21.167Z,5.97
2019-05-16T04:16:50.906Z,4.90
2019-05-16T04:19:17.311Z,6.60
2019-05-16T04:21:46.024Z,6.13
2019-05-16T04:24:14.017Z,6.00
2019-05-16T04:26:42.926Z,6.20
2019-05-16T04:29:11.895Z,12.87
2019-05-16T04:31:41.326Z,9.87
2019-05-16T04:34:12.899Z,6.03
2019-05-16T04:36:40.921Z,5.70
2019-05-16T04:39:11.818Z,6.87
2019-05-16T04:41:40.913Z,6.10
2019-05-16T04:44:11.234Z,4.90
2019-05-16T04:46:41.026Z,8.80
2019-05-16T04:49:10.949Z,7.57
2019-05-16T04:51:37.006Z,5.00
2019-05-16T04:54:07.157Z,5.53
2019-05-16T04:56:34.398Z,6.00
2019-05-16T04:59:02.117Z,7.10
2019-05-16T05:01:30.886Z,5.50
2019-05-16T05:04:09.613Z,6.27
2019-05-16T05:06:31.282Z,6.33
2019-05-16T05:09:03.275Z,8.33
2019-05-16T05:11:30.638Z,6.10
2019-05-16T05:14:00.882Z,7.70
2019-05-16T05:16:30.474Z,49.67
2019-05-16T05:19:00.166Z,19.20
2019-05-16T05:21:27.343Z,7.93
2019-05-16T05:23:56.328Z,7.47
2019-05-16T05:26:25.235Z,13.80
2019-05-16T05:28:52.977Z,8.07
2019-05-16T05:31:24.999Z,6.50
2019-05-16T05:33:50.813Z,5.83
2019-05-16T05:36:20.995Z,5.60
2019-05-16T05:38:52.738Z,8.57
2019-05-16T05:41:19.850Z,8.60
2019-05-16T05:43:50.267Z,8.07
2019-05-16T05:46:20.277Z,7.47
2019-05-16T05:48:47.384Z,9.23
2019-05-16T05:51:15.145Z,8.23
2019-05-16T05:53:43.148Z,6.97
2019-05-16T05:56:12.099Z,7.47
2019-05-16T05:58:40.737Z,32.17
2019-05-16T06:01:10.883Z,19.17
2019-05-16T06:03:39.884Z,10.97
2019-05-16T06:06:10.318Z,11.90
2019-05-16T06:08:37.805Z,16.83
2019-05-16T06:11:05.477Z,9.73
2019-05-16T06:13:33.611Z,13.13
2019-05-16T06:16:01.377Z,16.27
2019-05-16T06:18:30.501Z,12.30
2019-05-16T06:21:00.454Z,13.20
2019-05-16T06:23:30.843Z,9.20
2019-05-16T06:26:00.386Z,9.57
2019-05-16T06:28:30.269Z,9.07
2019-05-16T06:30:57.875Z,9.20
2019-05-16T06:33:25.648Z,10.07
2019-05-16T06:35:54.101Z,10.07
2019-05-16T06:38:21.881Z,8.33
2019-05-16T06:40:52.215Z,10.40
2019-05-16T06:43:20.462Z,9.53
2019-05-16T06:45:50.995Z,10.90
2019-05-16T06:48:18.003Z,9.33
2019-05-16T06:50:46.052Z,8.17
2019-05-16T06:53:13.662Z,8.60
2019-05-16T06:55:42.015Z,12.53
2019-05-16T06:58:11.386Z,12.60
2019-05-16T07:00:40.601Z,7.30
2019-05-16T07:03:10.216Z,6.00
2019-05-16T07:05:40.496Z,23.77
2019-05-16T07:08:10.460Z,25.40
2019-05-16T07:10:39.760Z,22.67
2019-05-16T07:13:10.399Z,7.83
2019-05-16T07:15:40.102Z,32.07
2019-05-16T07:18:10.823Z,17.77
2019-05-16T07:20:37.465Z,12.83
2019-05-16T07:23:05.070Z,11.47
2019-05-16T07:25:33.221Z,18.23
2019-05-16T07:28:00.945Z,8.53
2019-05-16T07:30:30.312Z,21.17
2019-05-16T07:33:00.321Z,14.37
2019-05-16T07:35:30.675Z,6.03
2019-05-16T07:38:00.461Z,12.70
2019-05-16T07:40:30.844Z,11.40
2019-05-16T07:43:00.112Z,8.67
2019-05-16T07:45:27.762Z,6.47
2019-05-16T07:47:55.814Z,7.60
2019-05-16T07:50:23.836Z,5.83
2019-05-16T07:52:51.697Z,4.00
2019-05-16T07:55:20.907Z,6.43
2019-05-16T07:57:50.642Z,3.83
2019-05-16T08:00:21.555Z,5.37
2019-05-16T08:02:50.600Z,6.87
2019-05-16T08:05:20.787Z,4.73
2019-05-16T08:07:47.986Z,6.17
2019-05-16T08:10:15.789Z,10.43
2019-05-16T08:12:43.849Z,5.90
2019-05-16T08:15:11.511Z,11.10
2019-05-16T08:17:44.100Z,12.13
2019-05-16T08:20:10.859Z,5.13
2019-05-16T08:22:41.439Z,6.73
2019-05-16T08:25:10.690Z,7.93
2019-05-16T08:27:41.364Z,8.57
2019-05-16T08:30:11.019Z,4.40
2019-05-16T08:32:42.134Z,8.93
2019-05-16T08:35:11.255Z,11.70
2019-05-16T08:37:44.073Z,7.00
2019-05-16T08:40:11.546Z,7.07
2019-05-16T08:42:41.715Z,6.77
2019-05-16T08:45:11.979Z,11.63
2019-05-16T08:47:41.841Z,7.17
2019-05-16T08:50:13.700Z,6.43
2019-05-16T08:52:43.588Z,5.90
2019-05-16T08:55:12.583Z,12.93
2019-05-16T08:57:40.933Z,12.43
2019-05-16T09:00:14.688Z,9.87
2019-05-16T09:02:42.206Z,6.87
2019-05-16T09:05:13.473Z,8.23
2019-05-16T09:07:40.455Z,16.97
2019-05-16T09:10:37.993Z,7.33
2019-05-16T09:12:38.994Z,6.93
2019-05-16T09:15:07.684Z,4.97
2019-05-16T09:17:37.454Z,4.97
2019-05-16T09:20:07.404Z,5.10
2019-05-16T09:22:37.804Z,5.70
2019-05-16T09:25:07.603Z,5.50
2019-05-16T09:27:38.119Z,7.63
2019-05-16T09:30:07.190Z,5.87
2019-05-16T09:32:37.095Z,6.27
2019-05-16T09:35:07.990Z,10.53
2019-05-16T09:37:37.614Z,7.83
2019-05-16T09:40:07.096Z,5.10
2019-05-16T09:42:37.142Z,6.60
2019-05-16T09:45:07.329Z,11.17
2019-05-16T09:47:35.145Z,5.60
2019-05-16T09:50:06.887Z,5.57
2019-05-16T09:52:36.397Z,6.17
2019-05-16T09:55:07.083Z,5.97
2019-05-16T09:57:37.607Z,7.83
2019-05-16T10:00:08.527Z,6.70
2019-05-16T10:02:36.755Z,4.73
2019-05-16T10:05:12.309Z,8.17
2019-05-16T10:07:38.784Z,8.70
2019-05-16T10:10:07.813Z,4.50
2019-05-16T10:12:37.109Z,4.37
2019-05-16T10:15:07.528Z,6.90
2019-05-16T10:17:36.946Z,5.67
2019-05-16T10:20:07.963Z,5.13
2019-05-16T10:22:37.343Z,6.37
2019-05-16T10:25:05.590Z,5.50
2019-05-16T10:27:33.642Z,5.43
2019-05-16T10:30:01.863Z,4.47
2019-05-16T10:32:31.108Z,4.33
2019-05-16T10:34:58.974Z,15.27
2019-05-16T10:37:27.625Z,17.97
2019-05-16T10:39:56.675Z,69.47
2019-05-16T10:42:28.896Z,13.20
2019-05-16T10:44:57.489Z,26.57
2019-05-16T10:47:28.617Z,11.80
2019-05-16T10:49:56.451Z,7.27
2019-05-16T10:52:26.988Z,5.00
2019-05-16T10:55:01.321Z,5.30
2019-05-16T10:57:29.390Z,13.23
2019-05-16T11:00:06.594Z,22.00
2019-05-16T11:02:27.585Z,9.27
2019-05-16T11:05:02.852Z,8.70
2019-05-16T11:07:29.499Z,10.33
2019-05-16T11:10:02.815Z,4.43
2019-05-16T11:12:45.516Z,4.83
2019-05-16T11:14:55.999Z,7.33
2019-05-16T11:17:23.723Z,9.60
2019-05-16T11:19:51.512Z,29.27
2019-05-16T11:22:19.612Z,19.57
2019-05-16T11:24:47.764Z,19.20
2019-05-16T11:27:15.755Z,18.63
2019-05-16T11:29:43.659Z,14.70
2019-05-16T11:32:11.491Z,10.77
2019-05-16T11:34:39.263Z,6.37
2019-05-16T11:37:07.381Z,8.13
2019-05-16T11:39:36.920Z,11.43
2019-05-16T11:42:04.709Z,6.40
2019-05-16T11:44:33.417Z,15.53
2019-05-16T11:47:01.560Z,13.37
2019-05-16T11:49:29.756Z,6.93
2019-05-16T11:51:58.451Z,8.73
2019-05-16T11:54:26.665Z,10.07
2019-05-16T11:56:57.073Z,6.07
2019-05-16T11:59:25.071Z,8.20
2019-05-16T12:01:53.131Z,6.67
2019-05-16T12:04:20.921Z,9.70
2019-05-16T12:06:48.630Z,7.93
2019-05-16T12:09:17.811Z,7.10
2019-05-16T12:11:45.989Z,6.67
2019-05-16T12:14:16.468Z,5.50
2019-05-16T12:16:43.881Z,5.97
2019-05-16T12:19:12.009Z,6.77
2019-05-16T12:21:40.139Z,6.23
2019-05-16T12:24:07.739Z,6.03
2019-05-16T12:26:37.224Z,6.60
2019-05-16T12:29:07.010Z,16.37
2019-05-16T12:31:37.376Z,17.20
2019-05-16T12:34:09.420Z,19.00
2019-05-16T12:36:37.754Z,6.23
2019-05-16T12:39:07.911Z,16.37
2019-05-16T12:41:40.926Z,12.27
2019-05-16T12:44:07.587Z,10.17
2019-05-16T12:46:36.502Z,7.63
2019-05-16T12:49:06.874Z,7.43
2019-05-16T12:51:34.491Z,9.70
2019-05-16T12:54:02.285Z,11.10
2019-05-16T12:56:30.602Z,10.40
2019-05-16T12:58:58.691Z,19.70
2019-05-16T13:01:30.651Z,15.23
2019-05-16T13:03:57.923Z,10.17
2019-05-16T13:06:27.752Z,6.67
2019-05-16T13:08:57.318Z,9.70
2019-05-16T13:11:27.002Z,11.30
2019-05-16T13:14:03.306Z,11.90
2019-05-16T13:16:25.235Z,11.27
2019-05-16T13:18:52.764Z,18.27
2019-05-16T13:21:22.969Z,10.10
2019-05-16T13:23:50.189Z,15.27
2019-05-16T13:26:18.324Z,15.33
2019-05-16T13:28:47.821Z,8.63
2019-05-16T13:31:17.150Z,6.37
2019-05-16T13:33:45.150Z,14.27
2019-05-16T13:36:12.842Z,14.53
2019-05-16T13:38:41.757Z,13.87
2019-05-16T13:41:09.982Z,6.67
2019-05-16T13:43:37.898Z,7.63
2019-05-16T13:46:07.079Z,5.30
2019-05-16T13:48:37.707Z,6.60
2019-05-16T13:51:11.823Z,40.10
2019-05-16T13:53:37.023Z,32.27
2019-05-16T13:56:07.115Z,7.80
2019-05-16T13:58:34.190Z,7.87
2019-05-16T14:01:01.917Z,6.70
2019-05-16T14:03:30.531Z,6.63
2019-05-16T14:05:58.353Z,6.07
2019-05-16T14:08:26.812Z,6.73
2019-05-16T14:11:00.783Z,6.33
2019-05-16T14:13:27.481Z,7.23
2019-05-16T14:15:55.109Z,6.67
2019-05-16T14:18:23.218Z,6.77
2019-05-16T14:20:51.080Z,10.37
2019-05-16T14:23:18.736Z,10.37
2019-05-16T14:25:48.214Z,7.03
2019-05-16T14:28:17.282Z,7.00
2019-05-16T14:30:58.570Z,6.67
2019-05-16T14:33:27.600Z,7.53
2019-05-16T14:35:56.399Z,7.57
2019-05-16T14:38:27.016Z,7.40
2019-05-16T14:40:57.129Z,7.57
2019-05-16T14:43:27.026Z,7.10
2019-05-16T14:45:57.247Z,8.13
2019-05-16T14:48:27.878Z,8.90
2019-05-16T14:50:57.461Z,8.90
2019-05-16T14:53:28.213Z,9.73
2019-05-16T14:55:57.694Z,8.23
2019-05-16T14:58:30.364Z,10.00
2019-05-16T15:00:57.518Z,8.07
2019-05-16T15:03:27.298Z,8.40
2019-05-16T15:05:58.609Z,10.23
2019-05-16T15:08:25.417Z,8.93
2019-05-16T15:10:53.876Z,7.37
2019-05-16T15:13:21.718Z,9.37
2019-05-16T15:15:49.601Z,8.00
2019-05-16T15:18:17.831Z,7.40
2019-05-16T15:20:47.102Z,8.07
2019-05-16T15:23:17.515Z,8.67
2019-05-16T15:25:44.672Z,8.17
2019-05-16T15:28:12.715Z,8.80
2019-05-16T15:30:40.398Z,8.43
2019-05-16T15:33:08.804Z,8.13
2019-05-16T15:35:38.072Z,7.93
2019-05-16T15:38:07.941Z,19.90
2019-05-16T15:40:37.582Z,22.00
2019-05-16T15:43:07.977Z,38.20
2019-05-16T15:45:43.552Z,13.77
2019-05-16T15:48:12.243Z,9.67
2019-05-16T15:50:40.422Z,9.40
2019-05-16T15:53:08.247Z,8.43
2019-05-16T15:55:36.828Z,10.53
2019-05-16T15:58:07.427Z,8.20
2019-05-16T16:00:40.117Z,7.97
2019-05-16T16:03:08.018Z,7.50
2019-05-16T16:05:37.494Z,10.20
2019-05-16T16:08:06.938Z,10.20
2019-05-16T16:10:37.778Z,9.40
2019-05-16T16:13:06.809Z,8.37
2019-05-16T16:15:48.587Z,6.90
2019-05-16T16:18:08.596Z,7.43
2019-05-16T16:20:35.200Z,9.27
2019-05-16T16:23:03.273Z,9.00
2019-05-16T16:25:31.186Z,8.83
2019-05-16T16:27:58.982Z,9.50
2019-05-16T16:30:27.833Z,9.33
2019-05-16T16:32:55.630Z,11.07
2019-05-16T16:35:23.220Z,12.27
2019-05-16T16:37:51.205Z,11.13
2019-05-16T16:40:19.110Z,10.80
2019-05-16T16:42:47.436Z,12.23
2019-05-16T16:45:17.511Z,10.30
2019-05-16T16:47:46.954Z,9.20
2019-05-16T16:50:17.096Z,10.60
2019-05-16T16:52:47.484Z,12.67
2019-05-16T16:55:17.006Z,9.10
2019-05-16T16:57:47.225Z,9.60
2019-05-16T17:00:17.507Z,9.70
2019-05-16T17:02:59.380Z,9.50
2019-05-16T17:05:16.941Z,9.30
2019-05-16T17:07:44.831Z,10.00
2019-05-16T17:10:14.133Z,10.20
2019-05-16T17:12:42.784Z,11.27
2019-05-16T17:15:11.136Z,12.40
2019-05-16T17:17:38.940Z,12.60
2019-05-16T17:20:07.918Z,13.33
2019-05-16T17:22:37.505Z,14.70
2019-05-16T17:25:07.153Z,13.77
2019-05-16T17:27:37.646Z,16.83
2019-05-16T17:30:13.864Z,16.00
2019-05-16T17:32:41.659Z,14.60
2019-05-16T17:35:09.877Z,14.10
2019-05-16T17:37:37.897Z,14.93
2019-05-16T17:40:06.376Z,15.00
2019-05-16T17:42:37.336Z,14.57
2019-05-16T17:45:07.418Z,13.30
2019-05-16T17:47:37.082Z,17.30
2019-05-16T17:50:07.183Z,13.80
2019-05-16T17:52:36.938Z,13.53
2019-05-16T17:55:07.262Z,14.33
2019-05-16T17:57:37.118Z,13.17
2019-05-16T18:00:07.032Z,13.00
2019-05-16T18:02:37.332Z,12.77
2019-05-16T18:05:07.375Z,14.67
2019-05-16T18:07:36.992Z,13.80
2019-05-16T18:10:07.454Z,13.70
2019-05-16T18:12:37.247Z,15.97
2019-05-16T18:15:08.193Z,15.03
2019-05-16T18:17:36.220Z,15.03
2019-05-16T18:20:06.571Z,16.53
2019-05-16T18:22:36.570Z,17.87
2019-05-16T18:25:06.862Z,15.10
2019-05-16T18:27:34.435Z,17.37
2019-05-16T18:30:04.956Z,18.97
2019-05-16T18:32:32.959Z,19.37
2019-05-16T18:35:01.316Z,17.10
2019-05-16T18:37:29.492Z,17.23
2019-05-16T18:39:57.107Z,15.60
2019-05-16T18:42:27.404Z,16.60
2019-05-16T18:44:56.537Z,16.47
2019-05-16T18:47:27.050Z,24.47
2019-05-16T18:49:57.206Z,20.90
2019-05-16T18:52:24.791Z,20.53
2019-05-16T18:54:52.525Z,17.80
2019-05-16T18:57:21.048Z,20.17
2019-05-16T18:59:48.690Z,18.83
2019-05-16T19:02:17.906Z,18.03
2019-05-16T19:04:49.857Z,18.73
2019-05-16T19:07:19.028Z,17.43
2019-05-16T19:09:47.093Z,19.10
2019-05-16T19:12:16.823Z,17.73
2019-05-16T19:14:44.314Z,18.57
2019-05-16T19:17:22.113Z,19.40
2019-05-16T19:19:41.880Z,21.03
2019-05-16T19:22:09.584Z,17.30
2019-05-16T19:24:37.595Z,20.60
2019-05-16T19:27:06.700Z,21.73
2019-05-16T19:29:36.719Z,21.90
2019-05-16T19:32:06.861Z,21.77
2019-05-16T19:34:36.318Z,21.87
2019-05-16T19:37:04.271Z,30.83
2019-05-16T19:39:32.295Z,28.33
2019-05-16T19:42:00.368Z,26.20
2019-05-16T19:44:27.900Z,23.20
2019-05-16T19:46:57.420Z,22.23
2019-05-16T19:49:27.580Z,20.83
2019-05-16T19:51:57.144Z,20.37
2019-05-16T19:54:26.834Z,19.50
2019-05-16T19:56:56.373Z,19.33
2019-05-16T19:59:23.806Z,20.67
2019-05-16T20:01:53.468Z,20.13
2019-05-16T20:04:21.143Z,23.70
2019-05-16T20:06:48.739Z,20.23
2019-05-16T20:09:16.666Z,22.57
2019-05-16T20:11:46.391Z,23.27
2019-05-16T20:14:16.966Z,22.00
2019-05-16T20:16:44.025Z,21.07
2019-05-16T20:19:12.149Z,22.13
2019-05-16T20:21:40.887Z,21.10
2019-05-16T20:24:08.852Z,21.10
2019-05-16T20:26:36.875Z,23.67
2019-05-16T20:29:04.545Z,21.73
2019-05-16T20:31:32.413Z,22.93
2019-05-16T20:34:00.101Z,24.97
2019-05-16T20:36:27.999Z,25.77
2019-05-16T20:38:55.658Z,23.90
2019-05-16T20:41:23.213Z,22.63
2019-05-16T20:43:51.375Z,25.70
2019-05-16T20:46:18.953Z,23.50
2019-05-16T20:48:47.004Z,24.53
2019-05-16T20:51:16.588Z,26.17
2019-05-16T20:53:49.385Z,26.30
2019-05-16T20:56:14.403Z,23.80
2019-05-16T20:58:42.298Z,25.90
2019-05-16T21:01:10.025Z,26.00
2019-05-16T21:03:38.444Z,27.40
2019-05-16T21:06:08.457Z,26.53
2019-05-16T21:08:37.089Z,33.63
2019-05-16T21:11:07.366Z,27.87
2019-05-16T21:13:35.133Z,29.20
2019-05-16T21:16:03.013Z,31.30
2019-05-16T21:18:30.800Z,28.43
2019-05-16T21:20:58.506Z,29.03
2019-05-16T21:23:27.470Z,31.67
2019-05-16T21:25:57.140Z,28.43
2019-05-16T21:28:26.315Z,30.17
2019-05-16T21:30:54.279Z,32.10
2019-05-16T21:33:22.019Z,34.17
2019-05-16T21:35:51.341Z,26.30
2019-05-16T21:38:19.368Z,30.33
2019-05-16T21:40:48.677Z,29.77
2019-05-16T21:43:16.873Z,31.40
2019-05-16T21:45:47.234Z,30.20
2019-05-16T21:48:16.306Z,30.07
2019-05-16T21:50:43.775Z,28.10
2019-05-16T21:53:11.666Z,32.73
2019-05-16T21:55:39.166Z,29.87
2019-05-16T21:58:06.656Z,29.60
2019-05-16T22:00:42.166Z,31.87
2019-05-16T22:03:11.858Z,32.47
2019-05-16T22:05:39.742Z,32.63
2019-05-16T22:08:07.619Z,32.83
2019-05-16T22:10:37.324Z,31.73
2019-05-16T22:13:07.785Z,33.00
2019-05-16T22:15:36.716Z,34.43
2019-05-16T22:18:06.997Z,35.13
2019-05-16T22:20:34.071Z,31.90
2019-05-16T22:23:01.724Z,36.10
2019-05-16T22:25:29.684Z,34.33
2019-05-16T22:27:58.086Z,33.93
2019-05-16T22:30:27.240Z,36.60
2019-05-16T22:32:55.029Z,38.17
2019-05-16T22:35:22.808Z,33.83
2019-05-16T22:37:55.493Z,35.70
2019-05-16T22:40:20.252Z,37.80
2019-05-16T22:42:47.843Z,34.97
2019-05-16T22:45:19.447Z,38.57
2019-05-16T22:47:47.049Z,37.07
2019-05-16T22:50:17.667Z,40.57
2019-05-16T22:52:46.373Z,39.33
2019-05-16T22:55:16.830Z,35.13
2019-05-16T22:57:44.131Z,38.53
2019-05-16T23:00:17.412Z,38.27
2019-05-16T23:02:45.430Z,36.53
2019-05-16T23:05:12.988Z,40.00
2019-05-16T23:07:41.018Z,39.17
2019-05-16T23:10:08.779Z,39.87
2019-05-16T23:12:37.113Z,39.47
2019-05-16T23:15:06.666Z,38.50
2019-05-16T23:17:37.318Z,38.57
2019-05-16T23:20:06.369Z,36.80
2019-05-16T23:22:36.483Z,42.20
2019-05-16T23:25:06.370Z,41.77
2019-05-16T23:27:36.574Z,41.13
2019-05-16T23:30:07.385Z,37.83
2019-05-16T23:32:36.524Z,40.40
2019-05-16T23:35:06.876Z,39.57
2019-05-16T23:37:36.788Z,40.53
2019-05-16T23:40:06.196Z,38.37
2019-05-16T23:42:33.732Z,37.37
2019-05-16T23:45:01.528Z,37.97
2019-05-16T23:47:29.853Z,39.77
2019-05-16T23:49:57.496Z,43.87
2019-05-16T23:52:27.220Z,38.33
2019-05-16T23:54:56.946Z,38.57
2019-05-16T23:57:26.453Z,38.27
2019-05-16T23:59:53.885Z,41.73
